Time;durP1;ratioP1;P1;durP2;ratioP2;P2;SDS_P1;SDS_P2;PMS_P1;PMS_P2;Temp;Humidity;BMP_temperature;BMP_pressure;BME280_temperature;BME280_humidity;BME280_pressure;Samples;Min_cycle;Max_cycle;Signal;HPM_P1;HPM_P2
2024/01/08 00:01:13;;;;;;;8.30;3.10;;;;;;;2.45;100.00;102614.25;5045921;28;20110;-46
2024/01/08 00:03:41;;;;;;;8.10;2.92;;;;;;;2.46;100.00;102621.38;5047593;28;20108;-47
2024/01/08 00:06:08;;;;;;;10.10;3.35;;;;;;;2.47;100.00;102612.09;5058811;28;20052;-45
2024/01/08 00:08:35;;;;;;;7.00;3.55;;;;;;;2.46;100.00;102622.19;5050165;28;20052;-50
2024/01/08 00:11:03;;;;;;;5.35;2.50;;;;;;;2.50;100.00;102621.72;5051603;28;20049;-46
2024/01/08 00:13:30;;;;;;;5.20;2.17;;;;;;;2.51;100.00;102618.75;5044553;28;20048;-47
2024/01/08 00:15:58;;;;;;;6.00;1.52;;;;;;;2.52;100.00;102628.59;5050373;28;20049;-45
2024/01/08 00:18:25;;;;;;;2.53;1.58;;;;;;;2.53;100.00;102627.53;5036950;28;20033;-45
2024/01/08 00:20:53;;;;;;;2.88;0.80;;;;;;;2.56;100.00;102634.41;5037626;28;20045;-45
2024/01/08 00:23:20;;;;;;;3.60;1.20;;;;;;;2.57;100.00;102623.22;5044725;28;20045;-47
2024/01/08 00:25:48;;;;;;;1.27;1.00;;;;;;;2.57;100.00;102623.22;5056071;28;20052;-47
2024/01/08 00:28:15;;;;;;;4.65;1.52;;;;;;;2.57;100.00;102623.22;5050199;28;20072;-46
2024/01/08 00:30:43;;;;;;;5.60;1.48;;;;;;;2.56;100.00;102621.56;5050638;28;20049;-48
2024/01/08 00:33:10;;;;;;;1.58;1.15;;;;;;;2.57;100.00;102611.47;5050089;28;20549;-48
2024/01/08 00:35:38;;;;;;;4.30;1.48;;;;;;;2.56;100.00;102618.84;5050177;28;20049;-47
2024/01/08 00:38:05;;;;;;;2.75;0.75;;;;;;;2.55;100.00;102613.59;5054320;28;20064;-49
2024/01/08 00:40:32;;;;;;;1.17;0.68;;;;;;;2.55;100.00;102625.38;5051000;28;20044;-46
2024/01/08 00:43:00;;;;;;;1.60;0.50;;;;;;;2.55;100.00;102619.06;5054815;28;20415;-47
2024/01/08 00:45:27;;;;;;;2.17;0.70;;;;;;;2.54;100.00;102612.78;5044440;28;20037;-48
2024/01/08 00:47:56;;;;;;;1.85;0.70;;;;;;;2.55;100.00;102613.59;5049778;28;20143;-44
2024/01/08 00:50:23;;;;;;;2.00;0.80;;;;;;;2.54;100.00;102609.22;5057321;28;20054;-47
2024/01/08 00:52:51;;;;;;;6.40;1.00;;;;;;;2.54;100.00;102607.31;5050026;28;20053;-44
2024/01/08 00:55:18;;;;;;;1.52;1.05;;;;;;;2.55;100.00;102614.44;5036685;28;20116;-45
2024/01/08 00:57:45;;;;;;;3.25;0.65;;;;;;;2.55;100.00;102613.59;5050373;28;20048;-46
2024/01/08 01:00:13;;;;;;;6.28;0.75;;;;;;;2.55;100.00;102608.13;5049684;28;20045;-48
2024/01/08 01:02:40;;;;;;;2.08;1.08;;;;;;;2.54;100.00;102612.78;5050839;28;20060;-45
2024/01/08 01:05:08;;;;;;;0.95;0.82;;;;;;;2.53;100.00;102613.03;5049486;28;20052;-46
2024/01/08 01:07:36;;;;;;;3.25;1.15;;;;;;;2.51;100.00;102609.72;5039910;28;20042;-46
2024/01/08 01:10:03;;;;;;;1.85;1.08;;;;;;;2.46;100.00;102591.31;5046516;28;20049;-46
2024/01/08 01:12:31;;;;;;;2.42;1.48;;;;;;;2.43;100.00;102605.47;5050989;28;20495;-45
2024/01/08 01:14:58;;;;;;;2.42;1.20;;;;;;;2.39;100.00;102604.28;5038815;28;20041;-45
2024/01/08 01:17:25;;;;;;;3.92;1.60;;;;;;;2.43;100.00;102608.22;5049115;28;20052;-46
2024/01/08 01:19:53;;;;;;;6.57;2.95;;;;;;;2.44;100.00;102612.59;5048502;28;20052;-46
2024/01/08 01:22:20;;;;;;;4.07;1.95;;;;;;;2.45;100.00;102614.25;5058776;28;20073;-49
2024/01/08 01:24:48;;;;;;;3.75;1.65;;;;;;;2.46;100.00;102613.19;5036715;28;20049;-46
2024/01/08 01:27:15;;;;;;;5.35;1.48;;;;;;;2.45;100.00;102611.53;5055468;28;20056;-47
2024/01/08 01:29:43;;;;;;;2.35;1.35;;;;;;;2.46;100.00;102610.47;5059144;28;20045;-47
2024/01/08 01:32:11;;;;;;;9.10;1.67;;;;;;;2.44;100.00;102605.22;5051698;28;20048;-47
2024/01/08 01:34:39;;;;;;;6.35;2.35;;;;;;;2.42;100.00;102606.53;5049932;28;20053;-45
2024/01/08 01:37:06;;;;;;;4.95;1.75;;;;;;;2.40;100.00;102605.97;5035970;28;20410;-45
2024/01/08 01:39:33;;;;;;;7.68;4.60;;;;;;;2.36;100.00;102611.09;5049197;28;20033;-51
2024/01/08 01:42:01;;;;;;;8.05;3.70;;;;;;;2.35;100.00;102608.59;5052900;28;20076;-47
2024/01/08 01:44:28;;;;;;;5.53;2.40;;;;;;;2.31;100.00;102599.22;5049539;28;20056;-49
2024/01/08 01:46:56;;;;;;;9.25;2.10;;;;;;;2.29;100.00;102606.84;5041082;28;20862;-47
2024/01/08 01:49:24;;;;;;;3.42;1.50;;;;;;;2.25;100.00;102602.97;5049954;28;20056;-47
2024/01/08 01:51:54;;;;;;;4.85;1.25;;;;;;;2.20;100.00;102605.56;5052317;28;20421;-45
2024/01/08 01:54:23;;;;;;;5.15;0.88;;;;;;;2.13;100.00;102611.19;5047931;28;20049;-46
2024/01/08 01:56:54;;;;;;;1.58;1.05;;;;;;;2.07;100.00;102606.69;5057222;28;20048;-48
2024/01/08 01:59:24;;;;;;;3.83;1.05;;;;;;;2.03;100.00;102600.06;5048543;28;20053;-47
2024/01/08 02:01:52;;;;;;;5.10;0.95;;;;;;;2.00;100.00;102607.91;5047809;28;20056;-47
2024/01/08 02:04:23;;;;;;;2.65;0.88;;;;;;;1.98;100.00;102608.16;5051147;28;20041;-46
2024/01/08 02:06:52;;;;;;;6.57;0.80;;;;;;;1.96;100.00;102607.56;5054774;28;20422;-47
2024/01/08 02:09:21;;;;;;;4.00;0.98;;;;;;;1.96;100.00;102614.94;5049491;28;20735;-49
2024/01/08 02:11:49;;;;;;;5.47;1.48;;;;;;;1.97;100.00;102614.69;5051360;28;20072;-47
2024/01/08 02:14:16;;;;;;;4.18;1.00;;;;;;;1.98;100.00;102615.53;5022127;28;20411;-45
2024/01/08 02:16:44;;;;;;;5.28;1.38;;;;;;;1.99;100.00;102608.97;5051595;28;20049;-46
2024/01/08 02:19:12;;;;;;;6.28;1.45;;;;;;;1.99;100.00;102606.25;5048886;28;20049;-46
2024/01/08 02:21:40;;;;;;;3.20;1.20;;;;;;;2.00;100.00;102606.00;5042450;28;20395;-48
2024/01/08 02:24:07;;;;;;;2.88;1.30;;;;;;;2.02;100.00;102603.03;5053164;28;20063;-46
2024/01/08 02:26:36;;;;;;;3.10;1.10;;;;;;;2.03;100.00;102610.16;5048474;28;20049;-46
2024/01/08 02:29:04;;;;;;;3.90;1.10;;;;;;;2.05;100.00;102610.75;5061461;28;20041;-45
2024/01/08 02:31:31;;;;;;;3.75;0.82;;;;;;;2.07;100.00;102605.84;5034677;28;20041;-46
2024/01/08 02:33:59;;;;;;;3.75;0.90;;;;;;;2.10;100.00;102614.41;5020744;28;20057;-48
2024/01/08 02:36:27;;;;;;;3.53;1.27;;;;;;;2.12;100.00;102614.19;5052542;28;20063;-46
2024/01/08 02:38:54;;;;;;;3.05;1.30;;;;;;;2.13;100.00;102615.81;5062232;28;20049;-45
2024/01/08 02:41:21;;;;;;;4.38;1.23;;;;;;;2.15;100.00;102619.13;5030314;28;20053;-45
2024/01/08 02:43:50;;;;;;;1.77;0.80;;;;;;;2.15;100.00;102616.41;5052904;28;20613;-46
2024/01/08 02:46:19;;;;;;;1.27;0.80;;;;;;;2.19;100.00;102614.84;5036564;28;20041;-48
2024/01/08 02:48:46;;;;;;;1.70;0.93;;;;;;;2.18;100.00;102614.00;5051945;28;20714;-47
2024/01/08 02:51:15;;;;;;;4.03;1.00;;;;;;;2.18;100.00;102607.72;5047413;28;20053;-45
2024/01/08 02:53:42;;;;;;;1.92;0.98;;;;;;;2.17;100.00;102622.47;5047334;28;21475;-45
2024/01/08 02:56:19;;;;;;;2.90;1.38;;;;;;;2.16;100.00;102616.16;5047855;28;20056;-46
2024/01/08 02:58:48;;;;;;;1.40;0.70;;;;;;;2.17;100.00;102611.53;5048023;28;20051;-48
2024/01/08 03:01:17;;;;;;;8.07;1.13;;;;;;;2.17;100.00;102611.53;5121162;22;20056;-45
2024/01/08 03:03:44;;;;;;;2.35;0.77;;;;;;;2.19;100.00;102609.38;5088543;28;20064;-44
2024/01/08 03:06:12;;;;;;;2.10;1.02;;;;;;;2.22;100.00;102608.91;5087566;28;20043;-44
2024/01/08 03:08:39;;;;;;;2.53;1.35;;;;;;;2.25;100.00;102614.69;5087623;28;20055;-44
2024/01/08 03:11:07;;;;;;;1.50;0.80;;;;;;;2.27;100.00;102620.75;5087839;28;20048;-44
2024/01/08 03:13:35;;;;;;;7.88;1.13;;;;;;;2.32;100.00;102628.22;5070182;28;20051;-45
2024/01/08 03:16:03;;;;;;;1.48;0.85;;;;;;;2.36;100.00;102623.91;5087949;28;20048;-47
2024/01/08 03:18:30;;;;;;;2.08;0.88;;;;;;;2.39;100.00;102620.69;5086597;28;20059;-44
2024/01/08 03:20:59;;;;;;;1.02;0.65;;;;;;;2.42;100.00;102620.19;5078650;28;20055;-44
2024/01/08 03:23:27;;;;;;;3.30;0.82;;;;;;;2.43;100.00;102622.72;5088584;28;20520;-44
2024/01/08 03:25:55;;;;;;;4.45;0.90;;;;;;;2.41;100.00;102618.53;5070065;28;20063;-44
2024/01/08 03:28:22;;;;;;;1.35;1.05;;;;;;;2.40;100.00;102627.81;5069466;28;20044;-46
2024/01/08 03:30:50;;;;;;;1.50;1.00;;;;;;;2.39;100.00;102620.69;5084937;28;20052;-44
2024/01/08 03:33:17;;;;;;;3.28;0.90;;;;;;;2.38;100.00;102619.84;5087196;28;20059;-44
2024/01/08 03:35:45;;;;;;;1.92;1.05;;;;;;;2.35;100.00;102609.44;5087479;28;20044;-45
2024/01/08 03:38:12;;;;;;;2.03;1.10;;;;;;;2.31;100.00;102613.72;5087781;28;20512;-44
2024/01/08 03:40:40;;;;;;;3.38;1.15;;;;;;;2.26;100.00;102621.81;5087324;28;20059;-44
2024/01/08 03:43:07;;;;;;;2.08;1.42;;;;;;;2.20;100.00;102616.50;5086651;28;20047;-44
2024/01/08 03:45:35;;;;;;;7.15;1.30;;;;;;;2.15;100.00;102622.69;5087366;28;20032;-45
2024/01/08 03:48:02;;;;;;;2.47;1.10;;;;;;;2.11;100.00;102634.38;5087870;28;20051;-45
2024/01/08 03:50:30;;;;;;;2.83;1.10;;;;;;;2.10;100.00;102632.69;5074433;28;20048;-44
2024/01/08 03:52:57;;;;;;;4.15;1.42;;;;;;;2.10;100.00;102629.97;5080333;28;20044;-44
2024/01/08 03:55:24;;;;;;;3.05;1.10;;;;;;;2.11;100.00;102635.19;5087762;28;20051;-44
2024/01/08 03:57:52;;;;;;;0.82;0.77;;;;;;;2.14;100.00;102639.34;5087537;28;20055;-44
2024/01/08 04:00:19;;;;;;;2.22;0.93;;;;;;;2.20;100.00;102646.56;5086252;28;20043;-43
2024/01/08 04:02:46;;;;;;;1.75;1.13;;;;;;;2.23;100.00;102649.63;5083307;28;20506;-46
2024/01/08 04:05:14;;;;;;;2.60;0.70;;;;;;;2.28;100.00;102659.81;5085176;28;20055;-43
2024/01/08 04:07:41;;;;;;;3.75;1.10;;;;;;;2.31;100.00;102651.16;5081367;28;20048;-44
2024/01/08 04:10:09;;;;;;;3.67;1.02;;;;;;;2.34;100.00;102662.44;5085584;28;20051;-43
2024/01/08 04:12:36;;;;;;;2.80;1.00;;;;;;;2.37;100.00;102655.66;5087601;28;20048;-44
2024/01/08 04:15:04;;;;;;;3.50;1.13;;;;;;;2.39;100.00;102654.31;5087527;28;20044;-43
2024/01/08 04:17:31;;;;;;;5.22;1.10;;;;;;;2.42;100.00;102653.00;5087849;28;20048;-45
2024/01/08 04:19:59;;;;;;;2.00;0.80;;;;;;;2.44;100.00;102650.84;5087233;28;20044;-43
2024/01/08 04:22:26;;;;;;;3.13;0.98;;;;;;;2.47;100.00;102650.38;5087633;28;20052;-43
2024/01/08 04:24:53;;;;;;;2.60;0.88;;;;;;;2.50;100.00;102646.31;5080454;28;20541;-44
2024/01/08 04:27:21;;;;;;;2.00;0.73;;;;;;;2.49;100.00;102648.22;5085955;28;20055;-43
2024/01/08 04:29:48;;;;;;;1.38;0.63;;;;;;;2.49;100.00;102637.28;5086729;28;20043;-44
2024/01/08 04:32:16;;;;;;;1.95;1.00;;;;;;;2.50;100.00;102638.94;5083135;28;20051;-44
2024/01/08 04:34:43;;;;;;;1.55;0.82;;;;;;;2.50;100.00;102649.88;5087560;28;20044;-44
2024/01/08 04:37:10;;;;;;;2.03;0.98;;;;;;;2.52;100.00;102647.72;5087310;28;20493;-44
2024/01/08 04:39:38;;;;;;;2.20;1.25;;;;;;;2.54;100.00;102636.56;5078928;28;20036;-43
2024/01/08 04:42:06;;;;;;;2.90;1.15;;;;;;;2.54;100.00;102640.13;5083184;28;20036;-44
2024/01/08 04:44:33;;;;;;;2.33;0.75;;;;;;;2.55;100.00;102641.78;5069407;28;20052;-45
2024/01/08 04:47:01;;;;;;;5.55;1.23;;;;;;;2.56;100.00;102643.44;5087001;28;20062;-49
2024/01/08 04:49:28;;;;;;;4.20;1.23;;;;;;;2.58;100.00;102641.28;5087590;28;20052;-45
2024/01/08 04:51:56;;;;;;;1.77;1.35;;;;;;;2.57;100.00;102650.53;5086761;28;20046;-44
2024/01/08 04:54:23;;;;;;;5.82;1.60;;;;;;;2.59;100.00;102655.78;5088494;28;20043;-45
2024/01/08 04:56:50;;;;;;;5.72;1.80;;;;;;;2.60;100.00;102649.22;5085914;28;20078;-44
2024/01/08 04:59:19;;;;;;;3.28;1.35;;;;;;;2.61;100.00;102648.16;5090583;28;20040;-44
2024/01/08 05:01:47;;;;;;;3.88;1.33;;;;;;;2.59;100.00;102648.41;5089879;28;20048;-49
2024/01/08 05:04:15;;;;;;;1.65;1.08;;;;;;;2.57;100.00;102650.53;5080430;28;20048;-44
2024/01/08 05:06:44;;;;;;;5.25;1.00;;;;;;;2.55;100.00;102651.88;5090535;28;20047;-44
2024/01/08 05:09:11;;;;;;;3.15;0.70;;;;;;;2.50;100.00;102638.94;5089012;28;20055;-45
2024/01/08 05:11:39;;;;;;;1.90;0.82;;;;;;;2.46;100.00;102651.47;5072734;28;20051;-44
2024/01/08 05:14:09;;;;;;;3.67;0.80;;;;;;;2.43;100.00;102649.22;5090714;28;20132;-44
2024/01/08 05:16:37;;;;;;;4.00;1.05;;;;;;;2.40;100.00;102646.97;5090326;28;20047;-44
2024/01/08 05:19:04;;;;;;;2.25;0.70;;;;;;;2.37;100.00;102644.72;5090726;28;20083;-44
2024/01/08 05:21:32;;;;;;;1.38;1.20;;;;;;;2.37;100.00;102644.72;5090401;28;20126;-47
2024/01/08 05:23:59;;;;;;;6.63;2.53;;;;;;;2.37;100.00;102651.00;5091032;28;20043;-44
2024/01/08 05:26:27;;;;;;;1.92;1.20;;;;;;;2.38;100.00;102646.38;5084911;28;20125;-44
2024/01/08 05:28:54;;;;;;;3.55;1.30;;;;;;;2.41;100.00;102645.88;5087258;28;20504;-44
2024/01/08 05:31:23;;;;;;;3.03;1.50;;;;;;;2.44;100.00;102651.69;5089736;28;20040;-44
2024/01/08 05:33:51;;;;;;;4.78;3.03;;;;;;;2.44;100.00;102665.34;5090208;28;20040;-44
2024/01/08 05:36:19;;;;;;;4.78;1.75;;;;;;;2.44;100.00;102650.84;5089212;28;20041;-46
2024/01/08 05:38:47;;;;;;;3.70;1.77;;;;;;;2.46;100.00;102656.94;5089615;28;20052;-48
2024/01/08 05:41:14;;;;;;;5.22;1.67;;;;;;;2.45;100.00;102658.81;5089797;28;20055;-44
2024/01/08 05:43:45;;;;;;;3.10;1.50;;;;;;;2.49;100.00;102670.06;5089396;28;20052;-44
2024/01/08 05:46:12;;;;;;;4.93;2.13;;;;;;;2.50;100.00;102668.19;5088872;28;20055;-45
2024/01/08 05:48:39;;;;;;;3.35;1.35;;;;;;;2.52;100.00;102674.22;5089831;28;20048;-44
2024/01/08 05:51:08;;;;;;;2.75;1.52;;;;;;;2.55;100.00;102663.66;5089803;28;20048;-44
2024/01/08 05:53:35;;;;;;;2.80;1.92;;;;;;;2.58;100.00;102674.09;5082567;28;20048;-47
2024/01/08 05:56:03;;;;;;;2.30;1.58;;;;;;;2.58;100.00;102665.88;5078622;28;20048;-44
2024/01/08 05:58:34;;;;;;;1.40;1.13;;;;;;;2.59;100.00;102673.03;5088932;28;20051;-45
2024/01/08 06:01:01;;;;;;;4.72;1.52;;;;;;;2.58;100.00;102668.63;5089707;28;20047;-45
2024/01/08 06:03:30;;;;;;;3.60;1.10;;;;;;;2.59;100.00;102669.47;5089801;28;20052;-45
2024/01/08 06:05:57;;;;;;;5.10;2.03;;;;;;;2.58;100.00;102671.34;5088609;28;20074;-44
2024/01/08 06:08:25;;;;;;;1.33;0.93;;;;;;;2.58;100.00;102681.47;5086991;28;20048;-44
2024/01/08 06:10:55;;;;;;;6.50;2.03;;;;;;;2.57;100.00;102677.88;5083943;28;20409;-44
2024/01/08 06:13:22;;;;;;;1.00;0.70;;;;;;;2.57;100.00;102686.09;5089790;28;20052;-44
2024/01/08 06:15:49;;;;;;;2.30;2.10;;;;;;;2.56;100.00;102686.34;5089088;28;20047;-47
2024/01/08 06:18:16;;;;;;;2.47;1.00;;;;;;;2.54;100.00;102678.41;5088718;28;20044;-46
2024/01/08 06:20:44;;;;;;;0.95;0.80;;;;;;;2.55;100.00;102679.22;5081602;28;20052;-47
2024/01/08 06:23:11;;;;;;;1.83;0.98;;;;;;;2.55;100.00;102679.22;5069612;28;20040;-45
2024/01/08 06:25:39;;;;;;;2.97;0.70;;;;;;;2.56;100.00;102687.19;5089631;28;20044;-44
2024/01/08 06:28:06;;;;;;;5.20;1.13;;;;;;;2.58;100.00;102685.03;5087827;28;20813;-47
2024/01/08 06:30:33;;;;;;;2.85;0.77;;;;;;;2.59;100.00;102683.97;5087501;28;20467;-45
2024/01/08 06:33:01;;;;;;;3.30;0.85;;;;;;;2.61;100.00;102679.06;5089279;28;20052;-45
2024/01/08 06:35:29;;;;;;;2.53;0.98;;;;;;;2.61;100.00;102681.81;5089180;28;20048;-46
2024/01/08 06:37:57;;;;;;;3.35;0.98;;;;;;;2.64;100.00;102684.06;5088259;28;20444;-47
2024/01/08 06:40:24;;;;;;;3.95;1.25;;;;;;;2.67;100.00;102691.78;5088696;28;20043;-44
2024/01/08 06:42:52;;;;;;;1.55;1.13;;;;;;;2.71;100.00;102687.47;5079080;28;20086;-46
2024/01/08 06:45:28;;;;;;;1.15;0.80;;;;;;;2.71;100.00;102679.25;5077941;28;20040;-49
2024/01/08 06:47:55;;;;;;;4.95;1.10;;;;;;;2.72;100.00;102678.19;5089349;28;20040;-45
2024/01/08 06:50:23;;;;;;;1.77;1.08;;;;;;;2.74;100.00;102684.25;5087956;28;20489;-45
2024/01/08 06:52:51;;;;;;;0.80;0.80;;;;;;;2.74;100.00;102678.78;5089243;28;20044;-47
2024/01/08 06:55:18;;;;;;;1.55;0.90;;;;;;;2.73;100.00;102688.03;5087811;28;20054;-44
2024/01/08 06:57:48;;;;;;;2.30;1.23;;;;;;;2.75;100.00;102691.38;5088196;28;20154;-52
2024/01/08 07:00:16;;;;;;;4.97;1.10;;;;;;;2.75;100.00;102693.28;5087606;28;20056;-46
2024/01/08 07:02:43;;;;;;;2.13;0.93;;;;;;;2.75;100.00;102696.00;5088487;28;20051;-45
2024/01/08 07:05:11;;;;;;;3.45;1.35;;;;;;;2.73;100.00;102693.50;5088095;28;20047;-44
2024/01/08 07:07:40;;;;;;;1.50;0.70;;;;;;;2.73;100.00;102690.78;5088772;28;20093;-47
2024/01/08 07:10:10;;;;;;;2.08;1.45;;;;;;;2.73;100.00;102689.94;5088228;28;20048;-44
2024/01/08 07:12:38;;;;;;;2.50;1.50;;;;;;;2.74;100.00;102695.19;5088456;28;20058;-46
2024/01/08 07:15:05;;;;;;;2.85;1.10;;;;;;;2.72;100.00;102691.88;5082510;28;20063;-44
2024/01/08 07:17:33;;;;;;;2.03;1.00;;;;;;;2.69;100.00;102691.50;5087722;28;20055;-44
2024/01/08 07:20:00;;;;;;;2.20;0.60;;;;;;;2.65;100.00;102691.16;5087983;28;20086;-49
2024/01/08 07:22:28;;;;;;;7.22;0.68;;;;;;;2.63;100.00;102697.97;5087946;28;20048;-47
2024/01/08 07:24:56;;;;;;;4.00;0.90;;;;;;;2.64;100.00;102695.00;5081569;28;20045;-51
2024/01/08 07:27:23;;;;;;;2.10;0.65;;;;;;;2.63;100.00;102700.69;5083163;28;20547;-45
2024/01/08 07:29:51;;;;;;;1.40;0.63;;;;;;;2.61;100.00;102691.91;5088070;28;20051;-48
2024/01/08 07:32:18;;;;;;;5.22;0.80;;;;;;;2.62;100.00;102694.38;5086938;28;20044;-46
2024/01/08 07:34:46;;;;;;;3.83;0.63;;;;;;;2.64;100.00;102695.00;5087906;28;20536;-46
2024/01/08 07:37:13;;;;;;;5.13;1.48;;;;;;;2.65;100.00;102706.78;5083958;28;20040;-49
2024/01/08 07:39:40;;;;;;;0.75;0.30;;;;;;;2.64;100.00;102686.78;5079774;28;20051;-49
2024/01/08 07:42:08;;;;;;;2.78;0.82;;;;;;;2.62;100.00;102697.13;5083084;28;20060;-48
2024/01/08 07:44:35;;;;;;;4.30;0.40;;;;;;;2.59;100.00;102694.91;5078562;28;20077;-47
2024/01/08 07:47:05;;;;;;;1.73;0.45;;;;;;;2.60;100.00;102695.72;5086748;28;20128;-46
2024/01/08 07:49:32;;;;;;;3.00;0.60;;;;;;;2.58;100.00;102695.97;5076739;28;20050;-49
2024/01/08 07:52:00;;;;;;;0.80;0.60;;;;;;;2.56;100.00;102686.34;5088304;28;20048;-44
2024/01/08 07:54:27;;;;;;;0.57;0.57;;;;;;;2.55;100.00;102696.44;5070336;28;20489;-45
2024/01/08 07:56:55;;;;;;;0.35;0.20;;;;;;;2.53;100.00;102687.66;5074603;28;20040;-45
2024/01/08 07:59:28;;;;;;;0.68;0.25;;;;;;;2.57;100.00;102704.44;5088084;28;20060;-44
2024/01/08 08:01:56;;;;;;;6.18;1.63;;;;;;;2.60;100.00;102709.38;5084109;28;20429;-45
2024/01/08 08:04:24;;;;;;;2.75;0.57;;;;;;;2.63;100.00;102707.00;5078978;28;20044;-44
2024/01/08 08:06:52;;;;;;;2.70;0.73;;;;;;;2.63;100.00;102714.38;5087757;28;20052;-48
2024/01/08 08:09:20;;;;;;;2.88;0.60;;;;;;;2.61;100.00;102714.63;5087589;28;20393;-46
2024/01/08 08:11:48;;;;;;;1.95;0.55;;;;;;;2.62;100.00;102724.47;5087365;28;20063;-47
2024/01/08 08:14:15;;;;;;;2.08;1.10;;;;;;;2.61;100.00;102722.81;5088112;28;20052;-48
2024/01/08 08:16:43;;;;;;;5.72;1.30;;;;;;;2.61;100.00;102711.88;5074676;28;20589;-48
2024/01/08 08:19:10;;;;;;;3.47;0.75;;;;;;;2.59;100.00;102714.03;5087338;28;20060;-48
2024/01/08 08:21:38;;;;;;;4.00;0.85;;;;;;;2.58;100.00;102712.38;5079471;28;20040;-47
2024/01/08 08:24:06;;;;;;;2.72;1.38;;;;;;;2.57;100.00;102727.09;5069062;28;20071;-47
2024/01/08 08:26:33;;;;;;;2.95;0.73;;;;;;;2.61;100.00;102725.56;5085981;28;20063;-46
2024/01/08 08:29:01;;;;;;;4.75;1.45;;;;;;;2.61;100.00;102728.28;5088099;28;20413;-45
2024/01/08 08:31:28;;;;;;;2.45;1.40;;;;;;;2.64;100.00;102732.44;5087295;28;20055;-46
2024/01/08 08:33:55;;;;;;;3.47;1.17;;;;;;;2.65;100.00;102745.84;5090378;28;20074;-46
2024/01/08 08:36:23;;;;;;;2.45;0.98;;;;;;;2.67;100.00;102746.47;5072727;28;20040;-45
2024/01/08 08:38:50;;;;;;;1.00;0.60;;;;;;;2.67;100.00;102746.47;5090535;28;20052;-48
2024/01/08 08:41:19;;;;;;;1.40;1.02;;;;;;;2.70;100.00;102745.94;5087870;28;20040;-48
2024/01/08 08:43:47;;;;;;;1.95;0.82;;;;;;;2.70;100.00;102743.22;5091527;28;20428;-49
2024/01/08 08:46:15;;;;;;;1.95;1.00;;;;;;;2.71;100.00;102750.34;5091206;28;20394;-47
2024/01/08 08:48:42;;;;;;;2.38;1.10;;;;;;;2.73;100.00;102741.91;5078046;28;20140;-49
2024/01/08 08:51:10;;;;;;;3.53;1.20;;;;;;;2.74;100.00;102744.41;5090536;28;20051;-45
2024/01/08 08:53:38;;;;;;;5.80;1.25;;;;;;;2.78;100.00;102751.03;5091268;28;20584;-43
2024/01/08 08:56:05;;;;;;;3.03;1.00;;;;;;;2.76;100.00;102736.78;5091341;28;20044;-45
2024/01/08 08:58:33;;;;;;;2.03;1.00;;;;;;;2.77;100.00;102749.38;5091055;28;20399;-45
2024/01/08 09:01:00;;;;;;;3.80;0.68;;;;;;;2.78;100.00;102753.78;5091109;28;20055;-44
2024/01/08 09:03:27;;;;;;;1.67;1.58;;;;;;;2.79;100.00;102741.75;5089843;28;20040;-44
2024/01/08 09:05:55;;;;;;;4.55;0.63;;;;;;;2.80;100.00;102754.38;5090260;28;20059;-44
2024/01/08 09:08:25;;;;;;;6.93;1.23;;;;;;;2.81;100.00;102750.56;5088876;28;20045;-45
2024/01/08 09:10:53;;;;;;;2.45;0.85;;;;;;;2.82;100.00;102737.72;5091476;28;20048;-43
2024/01/08 09:13:20;;;;;;;1.10;0.63;;;;;;;2.82;100.00;102757.69;5085965;28;20047;-45
2024/01/08 09:15:48;;;;;;;1.23;0.60;;;;;;;2.82;100.00;102754.97;5070701;28;20055;-44
2024/01/08 09:18:15;;;;;;;3.72;0.75;;;;;;;2.83;100.00;102758.53;5088578;28;20048;-50
2024/01/08 09:20:43;;;;;;;1.05;0.70;;;;;;;2.82;100.00;102757.69;5091099;28;20044;-45
2024/01/08 09:23:11;;;;;;;2.88;1.05;;;;;;;2.79;100.00;102763.66;5090792;28;20040;-46
2024/01/08 09:25:38;;;;;;;1.33;0.60;;;;;;;2.79;100.00;102758.19;5090654;28;20047;-46
2024/01/08 09:28:06;;;;;;;3.88;1.17;;;;;;;2.76;100.00;102761.41;5090906;28;20043;-43
2024/01/08 09:30:33;;;;;;;2.78;0.73;;;;;;;2.72;100.00;102762.97;5090533;28;20055;-50
2024/01/08 09:33:00;;;;;;;3.10;0.77;;;;;;;2.68;100.00;102764.53;5090133;28;20044;-44
2024/01/08 09:35:30;;;;;;;1.95;1.23;;;;;;;2.67;100.00;102772.97;5091366;28;20048;-48
2024/01/08 09:37:58;;;;;;;1.95;0.88;;;;;;;2.65;100.00;102775.94;5090967;28;20382;-44
2024/01/08 09:40:26;;;;;;;2.58;1.35;;;;;;;2.67;100.00;102775.72;5089348;28;20052;-46
2024/01/08 09:42:58;;;;;;;3.00;0.98;;;;;;;2.69;100.00;102779.88;5090620;28;20469;-43
2024/01/08 09:45:28;;;;;;;3.28;1.27;;;;;;;2.71;100.00;102779.59;5090502;28;20056;-44
2024/01/08 09:47:55;;;;;;;6.80;1.60;;;;;;;2.71;100.00;102780.44;5089755;28;20043;-46
2024/01/08 09:50:24;;;;;;;5.30;1.58;;;;;;;2.73;100.00;102780.19;5090176;28;20048;-44
2024/01/08 09:52:54;;;;;;;3.25;1.40;;;;;;;2.75;100.00;102789.84;5090667;28;20044;-46
2024/01/08 09:55:22;;;;;;;6.97;2.20;;;;;;;2.78;100.00;102786.59;5075848;28;20052;-45
2024/01/08 09:57:49;;;;;;;7.50;1.60;;;;;;;2.78;100.00;102783.84;5088393;28;20036;-44
2024/01/08 10:00:20;;;;;;;5.97;1.33;;;;;;;2.78;100.00;102783.06;5090365;28;20039;-44
2024/01/08 10:02:55;;;;;;;5.18;1.75;;;;;;;2.78;100.00;102788.53;5089606;28;20052;-44
2024/01/08 10:05:26;;;;;;;6.13;2.40;;;;;;;2.79;100.00;102788.25;5089467;28;20048;-47
2024/01/08 10:07:53;;;;;;;4.47;2.30;;;;;;;2.78;100.00;102808.47;5077686;28;20056;-48
2024/01/08 10:10:22;;;;;;;7.70;2.42;;;;;;;2.80;100.00;102794.56;5089009;28;20040;-45
2024/01/08 10:12:53;;;;;;;6.63;2.05;;;;;;;2.82;100.00;102787.78;5090490;28;20055;-52
2024/01/08 10:15:22;;;;;;;5.72;1.98;;;;;;;2.83;100.00;102808.56;5082561;28;20100;-43
2024/01/08 10:17:51;;;;;;;6.10;2.05;;;;;;;2.84;100.00;102810.25;5066064;28;20040;-46
2024/01/08 10:20:19;;;;;;;5.68;1.83;;;;;;;2.85;100.00;102811.91;5089586;28;20425;-48
2024/01/08 10:23:03;;;;;;;8.63;2.97;;;;;;;2.86;100.00;102819.03;5089483;28;20048;-45
2024/01/08 10:25:31;;;;;;;5.15;2.45;;;;;;;2.87;100.00;102815.22;5078081;28;20041;-46
2024/01/08 10:27:59;;;;;;;6.05;2.50;;;;;;;2.88;100.00;102818.81;5088307;28;20051;-50
2024/01/08 10:30:27;;;;;;;5.32;2.42;;;;;;;2.89;100.00;102820.44;5089862;28;20037;-44
2024/01/08 10:33:00;;;;;;;4.93;1.73;;;;;;;2.88;100.00;102816.91;5089865;28;20048;-47
2024/01/08 10:35:29;;;;;;;5.70;2.40;;;;;;;2.91;100.00;102821.06;5089154;28;20051;-47
2024/01/08 10:37:59;;;;;;;4.88;2.53;;;;;;;2.92;100.00;102818.06;5076962;28;20044;-44
2024/01/08 10:40:30;;;;;;;5.95;2.72;;;;;;;2.92;100.00;102823.53;5089867;28;20048;-44
2024/01/08 10:42:57;;;;;;;5.22;2.42;;;;;;;2.94;100.00;102824.13;5089456;28;20052;-44
2024/01/08 10:45:25;;;;;;;7.10;3.25;;;;;;;2.96;100.00;102824.72;5075625;28;20071;-44
2024/01/08 10:48:03;;;;;;;8.75;2.83;;;;;;;2.99;100.00;102818.75;5079916;28;20059;-46
2024/01/08 10:50:33;;;;;;;4.75;2.20;;;;;;;3.03;100.00;102819.94;5086750;28;20110;-46
2024/01/08 10:53:02;;;;;;;4.60;2.28;;;;;;;3.04;100.00;102829.78;5089151;28;20051;-47
2024/01/08 10:55:31;;;;;;;3.63;2.15;;;;;;;3.06;100.00;102824.06;5075396;28;20052;-45
2024/01/08 10:58:03;;;;;;;3.30;1.58;;;;;;;3.09;100.00;102826.34;5088721;28;20052;-49
2024/01/08 11:00:32;;;;;;;5.50;1.50;;;;;;;3.11;100.00;102826.91;5089035;28;20071;-46
2024/01/08 11:03:00;;;;;;;2.92;2.15;;;;;;;3.15;100.00;102819.06;5089008;28;20051;-48
2024/01/08 11:05:31;;;;;;;3.40;1.75;;;;;;;3.17;100.00;102816.91;5082722;28;20040;-47
2024/01/08 11:08:00;;;;;;;5.38;1.90;;;;;;;3.18;100.00;102815.84;5068701;28;20049;-46
2024/01/08 11:10:28;;;;;;;3.60;1.65;;;;;;;3.22;100.00;102819.72;5080752;28;20040;-45
2024/01/08 11:12:56;;;;;;;5.35;1.85;;;;;;;3.25;100.00;102821.97;5070547;28;20059;-45
2024/01/08 11:15:26;;;;;;;8.55;2.25;;;;;;;3.28;100.00;102822.31;5087839;28;20052;-48
2024/01/08 11:17:58;;;;;;;4.60;2.08;;;;;;;3.32;100.00;102818.00;5088340;28;20071;-47
2024/01/08 11:20:45;;;;;;;3.17;1.42;;;;;;;3.36;100.00;102818.34;5088385;28;20509;-49
2024/01/08 11:23:41;;;;;;;5.65;2.10;;;;;;;3.39;100.00;102815.94;5087451;28;20051;-44
2024/01/08 11:26:18;;;;;;;5.45;1.90;;;;;;;3.42;100.00;102822.81;5087593;28;20079;-43
2024/01/08 11:29:04;;;;;;;3.20;2.22;;;;;;;3.44;100.00;102820.69;5075523;28;20079;-44